Terminal Aerodrome Forecast
Issued by NWS Jackson, KY

Home | Current Version | Previous Version | Text Only | Print | Product List | Glossary On
Versions: 1 2 3 4 5 6 7 8 9 10 11 12 13 14 15 16 17 18 19 20 21 22 23
000
FTUS43 KJKL 240523
TAFLOZ
TAF
KLOZ 240523Z 2406/2506 VRB03KT P6SM SCT100
     FM240900 17005KT P6SM SCT100 WS020/20035KT
     FM241400 18010KT P6SM FEW035 SCT130
     FM241700 19014G24KT P6SM FEW035 SCT090
     FM250400 19009KT 5SM -SHRA VCTS BKN050CB=

USA.gov is the U.S. government's official web portal to all federal, state and local government web resources and services.